createdAt,value
2018-05-11T00:00:15.419Z,1.30
2018-05-11T00:01:15.373Z,1.30
2018-05-11T00:02:15.342Z,1.30
2018-05-11T00:03:15.297Z,1.30
2018-05-11T00:04:15.293Z,1.40
2018-05-11T00:05:15.213Z,1.30
2018-05-11T00:06:15.174Z,1.50
2018-05-11T00:07:15.132Z,1.40
2018-05-11T00:08:15.090Z,1.40
2018-05-11T00:09:15.050Z,1.30
2018-05-11T00:10:15.008Z,1.40
2018-05-11T00:11:14.970Z,1.50
2018-05-11T00:12:14.928Z,1.30
2018-05-11T00:13:14.880Z,1.40
2018-05-11T00:14:14.867Z,1.40
2018-05-11T00:15:14.807Z,1.30
2018-05-11T00:16:14.768Z,1.20
2018-05-11T00:17:14.723Z,1.30
2018-05-11T00:18:14.684Z,1.40
2018-05-11T00:19:14.639Z,1.40
2018-05-11T00:20:14.595Z,1.40
2018-05-11T00:21:14.558Z,1.40
2018-05-11T00:22:14.513Z,1.50
2018-05-11T00:23:14.478Z,1.50
2018-05-11T00:24:14.443Z,1.40
2018-05-11T00:25:14.404Z,1.40
2018-05-11T00:26:14.366Z,1.40
2018-05-11T00:27:14.318Z,1.20
2018-05-11T00:28:14.273Z,1.30
2018-05-11T00:29:14.247Z,1.30
2018-05-11T00:30:14.194Z,1.40
2018-05-11T00:31:14.151Z,1.20
2018-05-11T00:32:14.110Z,1.20
2018-05-11T00:33:14.071Z,1.40
2018-05-11T00:34:14.042Z,1.20
2018-05-11T00:35:13.991Z,1.50
2018-05-11T00:36:13.952Z,1.20
2018-05-11T00:37:13.907Z,1.50
2018-05-11T00:38:13.866Z,1.30
2018-05-11T00:39:13.828Z,1.20
2018-05-11T00:40:13.786Z,1.40
2018-05-11T00:41:13.742Z,1.40
2018-05-11T00:42:13.701Z,1.40
2018-05-11T00:43:13.663Z,1.30
2018-05-11T00:44:13.624Z,1.40
2018-05-11T00:45:13.589Z,1.30
2018-05-11T00:46:13.540Z,1.20
2018-05-11T00:47:13.502Z,1.30
2018-05-11T00:48:13.458Z,1.10
2018-05-11T00:49:13.417Z,1.20
2018-05-11T00:50:13.372Z,1.30
2018-05-11T00:51:13.330Z,1.20
2018-05-11T00:52:13.287Z,1.40
2018-05-11T00:53:13.254Z,1.40
2018-05-11T00:54:13.212Z,1.00
2018-05-11T00:55:13.172Z,1.40
2018-05-11T00:56:13.130Z,1.10
2018-05-11T00:57:13.102Z,1.30
2018-05-11T00:58:13.040Z,1.20
2018-05-11T00:59:13.009Z,1.00
2018-05-11T01:00:12.970Z,1.30
2018-05-11T01:01:12.968Z,1.20
2018-05-11T01:02:12.897Z,1.20
2018-05-11T01:03:12.852Z,1.30
2018-05-11T01:04:12.815Z,1.20
2018-05-11T01:05:12.767Z,1.40
2018-05-11T01:06:12.720Z,1.20
2018-05-11T01:07:12.672Z,1.20
2018-05-11T01:08:12.640Z,1.10
2018-05-11T01:09:12.592Z,0.90
2018-05-11T01:10:12.558Z,1.20
2018-05-11T01:11:12.519Z,1.20
2018-05-11T01:12:12.475Z,1.00
2018-05-11T01:13:12.441Z,1.20
2018-05-11T01:14:12.398Z,1.10
2018-05-11T01:15:12.348Z,1.30
2018-05-11T01:16:12.317Z,1.10
2018-05-11T01:17:12.289Z,1.10
2018-05-11T01:18:12.237Z,1.00
2018-05-11T01:19:12.192Z,1.20
2018-05-11T01:20:12.155Z,1.00
2018-05-11T01:21:12.114Z,1.30
2018-05-11T01:22:12.069Z,1.20
2018-05-11T01:23:12.025Z,1.20
2018-05-11T01:24:11.992Z,1.20
2018-05-11T01:25:11.944Z,1.20
2018-05-11T01:26:11.906Z,1.00
2018-05-11T01:27:11.865Z,1.20
2018-05-11T01:28:11.829Z,1.10
2018-05-11T01:29:11.785Z,1.10
2018-05-11T01:30:11.741Z,1.10
2018-05-11T01:31:11.701Z,1.00
2018-05-11T01:32:11.672Z,1.00
2018-05-11T01:33:11.627Z,1.20
2018-05-11T01:34:11.584Z,1.10
2018-05-11T01:35:11.540Z,1.00
2018-05-11T01:36:11.499Z,1.00
2018-05-11T01:37:11.448Z,1.20
2018-05-11T01:38:11.416Z,1.30
2018-05-11T01:39:11.378Z,1.10
2018-05-11T01:40:11.342Z,1.20
2018-05-11T01:41:11.299Z,1.00
2018-05-11T01:42:11.250Z,1.10
2018-05-11T01:43:11.212Z,1.20
2018-05-11T01:44:11.175Z,0.90
2018-05-11T01:45:11.126Z,1.10
2018-05-11T01:46:11.088Z,1.00
2018-05-11T01:47:11.040Z,1.10
2018-05-11T01:48:11.007Z,1.10
2018-05-11T01:49:10.970Z,1.20
2018-05-11T01:50:10.931Z,1.00
2018-05-11T01:51:10.883Z,0.90
2018-05-11T01:52:10.848Z,0.90
2018-05-11T01:53:10.803Z,0.90
2018-05-11T01:54:10.759Z,1.00
2018-05-11T01:55:10.724Z,0.90
2018-05-11T01:56:10.679Z,1.00
2018-05-11T01:57:10.648Z,1.30
2018-05-11T01:58:10.599Z,1.10
2018-05-11T01:59:10.559Z,1.10
2018-05-11T02:00:10.517Z,1.00
2018-05-11T02:01:10.478Z,0.90
2018-05-11T02:02:10.434Z,1.00
2018-05-11T02:03:10.392Z,1.10
2018-05-11T02:04:10.355Z,1.10
2018-05-11T02:05:10.317Z,0.90
2018-05-11T02:06:10.298Z,0.90
2018-05-11T02:07:10.231Z,1.00
2018-05-11T02:08:10.189Z,1.00
2018-05-11T02:09:10.155Z,1.10
2018-05-11T02:10:10.108Z,1.00
2018-05-11T02:11:10.069Z,1.00
2018-05-11T02:12:10.029Z,0.80
2018-05-11T02:13:09.984Z,1.00
2018-05-11T02:14:09.943Z,0.80
2018-05-11T02:15:09.906Z,1.00
2018-05-11T02:16:09.866Z,0.90
2018-05-11T02:17:09.828Z,0.90
2018-05-11T02:18:09.782Z,1.20
2018-05-11T02:19:09.740Z,0.90
2018-05-11T02:20:09.698Z,1.00
2018-05-11T02:21:09.661Z,0.90
2018-05-11T02:22:09.618Z,1.00
2018-05-11T02:23:09.581Z,1.00
2018-05-11T02:24:09.543Z,0.90
2018-05-11T02:25:09.496Z,1.10
2018-05-11T02:26:09.459Z,1.10
2018-05-11T02:27:09.439Z,1.00
2018-05-11T02:28:09.377Z,0.90
2018-05-11T02:29:09.333Z,1.20
2018-05-11T02:30:09.295Z,0.90
2018-05-11T02:31:09.262Z,0.90
2018-05-11T02:32:09.218Z,0.90
2018-05-11T02:33:09.267Z,1.10
2018-05-11T02:34:09.137Z,0.90
2018-05-11T02:35:09.091Z,1.20
2018-05-11T02:36:09.049Z,0.90
2018-05-11T02:37:09.004Z,1.10
2018-05-11T02:38:08.962Z,1.00
2018-05-11T02:39:08.928Z,1.00
2018-05-11T02:40:08.937Z,1.00
2018-05-11T02:41:08.847Z,0.90
2018-05-11T02:42:08.806Z,1.10
2018-05-11T02:43:08.761Z,1.00
2018-05-11T02:44:08.720Z,1.10
2018-05-11T02:45:08.678Z,1.00
2018-05-11T02:46:08.638Z,1.00
2018-05-11T02:47:08.588Z,0.90
2018-05-11T02:48:08.556Z,1.20
2018-05-11T02:49:08.518Z,1.00
2018-05-11T02:50:08.477Z,0.90
2018-05-11T02:51:08.447Z,1.00
2018-05-11T02:52:08.394Z,1.10
2018-05-11T02:53:08.357Z,0.90
2018-05-11T02:54:08.315Z,0.90
2018-05-11T02:55:08.273Z,0.90
2018-05-11T02:56:08.224Z,0.90
2018-05-11T02:57:08.187Z,1.10
2018-05-11T02:58:08.152Z,1.00
2018-05-11T02:59:08.107Z,0.90
2018-05-11T03:00:08.069Z,1.10
2018-05-11T03:01:08.024Z,1.00
2018-05-11T03:02:07.989Z,1.10
2018-05-11T03:03:07.946Z,1.00
2018-05-11T03:04:07.901Z,1.00
2018-05-11T03:05:07.859Z,0.90
2018-05-11T03:06:07.840Z,1.00
2018-05-11T03:07:07.788Z,0.90
2018-05-11T03:08:07.739Z,0.80
2018-05-11T03:09:07.697Z,1.00
2018-05-11T03:10:07.664Z,0.90
2018-05-11T03:11:07.617Z,0.90
2018-05-11T03:12:07.579Z,0.90
2018-05-11T03:13:07.533Z,0.80
2018-05-11T03:14:07.495Z,0.90
2018-05-11T03:15:07.459Z,0.90
2018-05-11T03:16:07.405Z,1.00
2018-05-11T03:17:07.369Z,1.00
2018-05-11T03:18:07.330Z,1.00
2018-05-11T03:19:07.291Z,0.80
2018-05-11T03:20:07.247Z,0.90
2018-05-11T03:21:07.209Z,0.90
2018-05-11T03:22:07.170Z,0.80
2018-05-11T03:23:07.138Z,1.10
2018-05-11T03:24:07.084Z,0.90
2018-05-11T03:25:07.045Z,1.00
2018-05-11T03:26:06.997Z,0.80
2018-05-11T03:27:06.959Z,0.80
2018-05-11T03:28:06.917Z,1.00
2018-05-11T03:29:06.884Z,0.80
2018-05-11T03:30:06.837Z,0.80
2018-05-11T03:31:06.799Z,1.00
2018-05-11T03:32:06.751Z,0.90
2018-05-11T03:33:06.717Z,0.80
2018-05-11T03:34:06.682Z,0.90
2018-05-11T03:35:06.632Z,0.90
2018-05-11T03:36:06.594Z,1.00
2018-05-11T03:37:06.544Z,0.90
2018-05-11T03:38:06.509Z,1.00
2018-05-11T03:39:06.475Z,0.80
2018-05-11T03:40:06.432Z,1.00
2018-05-11T03:41:06.389Z,1.00
2018-05-11T03:42:06.348Z,0.80
2018-05-11T03:43:06.299Z,0.80
2018-05-11T03:44:06.256Z,0.70
2018-05-11T03:45:06.227Z,0.80
2018-05-11T03:46:06.183Z,0.70
2018-05-11T03:47:06.141Z,0.80
2018-05-11T03:48:06.103Z,0.90
2018-05-11T03:49:06.061Z,0.80
2018-05-11T03:50:06.022Z,1.00
2018-05-11T03:51:05.978Z,0.90
2018-05-11T03:52:05.937Z,0.90
2018-05-11T03:53:05.892Z,1.00
2018-05-11T03:54:05.857Z,0.80
2018-05-11T03:55:05.825Z,0.90
2018-05-11T03:56:05.793Z,0.80
2018-05-11T03:57:05.740Z,0.80
2018-05-11T03:58:05.694Z,0.90
2018-05-11T03:59:05.656Z,1.00
2018-05-11T04:00:05.628Z,0.90
2018-05-11T04:01:05.573Z,0.90
2018-05-11T04:02:05.522Z,0.80
2018-05-11T04:03:05.489Z,0.70
2018-05-11T04:04:05.450Z,1.10
2018-05-11T04:05:05.407Z,0.80
2018-05-11T04:06:05.365Z,1.20
2018-05-11T04:07:05.318Z,0.90
2018-05-11T04:08:05.290Z,0.80
2018-05-11T04:09:05.234Z,1.10
2018-05-11T04:10:05.204Z,0.80
2018-05-11T04:11:05.159Z,1.00
2018-05-11T04:12:05.131Z,0.90
2018-05-11T04:13:05.167Z,0.90
2018-05-11T04:14:05.038Z,0.90
2018-05-11T04:15:04.996Z,0.80
2018-05-11T04:16:04.956Z,0.70
2018-05-11T04:17:04.918Z,0.90
2018-05-11T04:18:04.876Z,0.90
2018-05-11T04:19:04.837Z,0.70
2018-05-11T04:20:04.797Z,0.80
2018-05-11T04:21:04.754Z,0.90
2018-05-11T04:22:04.706Z,0.70
2018-05-11T04:23:04.673Z,0.90
2018-05-11T04:24:04.623Z,0.80
2018-05-11T04:25:04.589Z,0.90
2018-05-11T04:26:04.543Z,0.80
2018-05-11T04:27:04.507Z,0.70
2018-05-11T04:28:04.471Z,1.00
2018-05-11T04:29:04.427Z,0.80
2018-05-11T04:30:04.379Z,0.80
2018-05-11T04:31:04.347Z,1.00
2018-05-11T04:32:04.299Z,0.80
2018-05-11T04:33:04.260Z,0.80
2018-05-11T04:34:04.226Z,0.90
2018-05-11T04:35:04.176Z,0.80
2018-05-11T04:36:04.146Z,0.90
2018-05-11T04:37:04.105Z,0.90
2018-05-11T04:38:04.054Z,0.90
2018-05-11T04:39:04.016Z,1.00
2018-05-11T04:40:03.981Z,0.90
2018-05-11T04:41:03.933Z,0.80
2018-05-11T04:42:03.882Z,0.90
2018-05-11T04:43:03.850Z,1.00
2018-05-11T04:44:03.810Z,0.90
2018-05-11T04:45:03.821Z,0.90
2018-05-11T04:46:03.733Z,0.80
2018-05-11T04:47:03.687Z,0.80
2018-05-11T04:48:03.642Z,0.90
2018-05-11T04:49:03.613Z,0.90
2018-05-11T04:50:03.562Z,1.00
2018-05-11T04:51:03.524Z,1.00
2018-05-11T04:52:03.483Z,0.80
2018-05-11T04:53:03.444Z,0.90
2018-05-11T04:54:03.391Z,1.00
2018-05-11T04:55:03.362Z,1.00
2018-05-11T04:56:03.320Z,0.80
2018-05-11T04:57:03.279Z,0.80
2018-05-11T04:58:03.237Z,0.90
2018-05-11T04:59:03.193Z,0.90
2018-05-11T05:00:03.156Z,0.70
2018-05-11T05:01:03.115Z,0.80
2018-05-11T05:02:03.076Z,0.80
2018-05-11T05:03:03.041Z,0.80
2018-05-11T05:04:02.999Z,1.00
2018-05-11T05:05:02.955Z,0.90
2018-05-11T05:06:02.903Z,0.70
2018-05-11T05:07:02.875Z,0.80
2018-05-11T05:08:02.840Z,1.00
2018-05-11T05:09:02.785Z,0.80
2018-05-11T05:10:02.747Z,0.70
2018-05-11T05:11:02.703Z,0.80
2018-05-11T05:12:02.664Z,0.80
2018-05-11T05:13:02.622Z,0.70
2018-05-11T05:14:02.579Z,0.80
2018-05-11T05:15:02.541Z,0.70
2018-05-11T05:16:02.505Z,0.80
2018-05-11T05:17:02.468Z,0.80
2018-05-11T05:18:02.429Z,0.90
2018-05-11T05:19:02.379Z,0.60
2018-05-11T05:20:02.337Z,0.80
2018-05-11T05:21:02.297Z,0.60
2018-05-11T05:22:02.246Z,0.90
2018-05-11T05:23:02.214Z,0.70
2018-05-11T05:24:02.168Z,0.70
2018-05-11T05:25:02.134Z,0.80
2018-05-11T05:26:02.095Z,0.70
2018-05-11T05:27:02.047Z,0.80
2018-05-11T05:28:02.016Z,0.60
2018-05-11T05:29:01.969Z,0.70
2018-05-11T05:30:01.932Z,0.80
2018-05-11T05:31:01.887Z,1.10
2018-05-11T05:32:01.842Z,0.60
2018-05-11T05:33:01.830Z,0.70
2018-05-11T05:34:01.766Z,0.70
2018-05-11T05:35:01.731Z,0.80
2018-05-11T05:36:01.687Z,0.80
2018-05-11T05:37:01.642Z,0.70
2018-05-11T05:38:01.599Z,0.60
2018-05-11T05:39:01.559Z,0.80
2018-05-11T05:40:01.522Z,0.70
2018-05-11T05:41:01.485Z,0.80
2018-05-11T05:42:01.438Z,0.80
2018-05-11T05:43:01.398Z,0.60
2018-05-11T05:44:01.355Z,0.70
2018-05-11T05:45:01.313Z,0.90
2018-05-11T05:46:01.274Z,0.80
2018-05-11T05:47:01.228Z,0.90
2018-05-11T05:48:01.195Z,0.60
2018-05-11T05:49:01.148Z,0.80
2018-05-11T05:50:01.109Z,0.50
2018-05-11T05:51:01.087Z,0.80
2018-05-11T05:52:01.028Z,0.90
2018-05-11T05:53:00.997Z,0.90
2018-05-11T05:54:00.947Z,0.70
2018-05-11T05:55:00.911Z,0.70
2018-05-11T05:56:00.870Z,0.60
2018-05-11T05:57:00.838Z,0.70
2018-05-11T05:58:00.786Z,0.70
2018-05-11T05:59:00.743Z,0.60
2018-05-11T06:00:00.730Z,0.50
2018-05-11T06:01:00.663Z,0.70
2018-05-11T06:02:00.615Z,0.80
2018-05-11T06:03:00.579Z,0.60
2018-05-11T06:04:00.530Z,0.80
2018-05-11T06:05:00.505Z,0.80
2018-05-11T06:06:00.469Z,0.60
2018-05-11T06:07:00.409Z,0.80
2018-05-11T06:08:00.379Z,0.70
2018-05-11T06:09:00.331Z,0.50
2018-05-11T06:10:00.293Z,0.80
2018-05-11T06:11:00.252Z,0.90
2018-05-11T06:12:00.207Z,0.80
2018-05-11T06:13:00.178Z,0.90
2018-05-11T06:14:00.128Z,0.80
2018-05-11T06:15:00.087Z,0.90
2018-05-11T06:16:00.036Z,0.80
2018-05-11T06:17:00.004Z,0.60
2018-05-11T06:17:59.965Z,0.70
2018-05-11T06:18:59.920Z,0.70
2018-05-11T06:19:59.878Z,0.70
2018-05-11T06:20:59.851Z,0.70
2018-05-11T06:21:59.852Z,1.00
